Vale, Oregon
Current Conditions -  °F | °C
As of 4:53 AM on Thursday 23 Oct 2014 (Local Time) from KONO Reporting Station
Overcast Overcast  
Wind Chill: 51°   Ceiling: 7500
Heat Index: 51°   Visibility: 10mi
Dew Point: 48°   Wind: 6mph
Humidity: 89%   Direction: 330°NNW
Pressure: 29.97"   Gusts: NA
Location:  43.98°N, 117.24°W
Report Text: KONO 231053Z AUTO 33005KT 10SM BKN075 OVC100 11/09 A2997 RMK AO2 RAE49 SLP150 P0001 T01060089
Loading
Personal Weather Stations






























Interactive Weather Map
Tropical Storm Tracking
New forecast layout! Learn more

10-Day Weather Forecast

Advertisements
Track Severe Weather on mobile